Time;durP1;ratioP1;P1;durP2;ratioP2;P2;SDS_P1;SDS_P2;PMS_P1;PMS_P2;Temp;Humidity;BMP_temperature;BMP_pressure;BME280_temperature;BME280_humidity;BME280_pressure;Samples;Min_cycle;Max_cycle;Signal;HPM_P1;HPM_P2
2021/12/28 00:00:24;;;;;;;124.60;112.70;;;6.80;98.80;;;;;;5034309;28;20507;-77
2021/12/28 00:02:51;;;;;;;122.22;110.82;;;6.80;99.00;;;;;;5033033;28;20061;-77
2021/12/28 00:05:20;;;;;;;125.93;114.22;;;6.80;98.80;;;;;;5032627;28;20508;-77
2021/12/28 00:07:47;;;;;;;124.03;112.40;;;6.80;98.90;;;;;;5032257;28;20077;-77
2021/12/28 00:10:18;;;;;;;123.68;112.18;;;6.80;98.90;;;;;;5033040;28;20104;-77
2021/12/28 00:12:47;;;;;;;123.45;112.18;;;6.80;98.90;;;;;;5034106;28;20108;-77
2021/12/28 00:15:32;;;;;;;122.40;110.95;;;6.80;99.00;;;;;;5032494;28;20065;-77
2021/12/28 00:18:00;;;;;;;123.40;111.90;;;6.80;99.00;;;;;;5032455;28;20061;-77
2021/12/28 00:20:27;;;;;;;122.20;110.80;;;6.80;99.00;;;;;;5034123;28;20104;-77
2021/12/28 00:22:54;;;;;;;125.38;113.88;;;6.80;99.10;;;;;;5033953;28;20133;-76
2021/12/28 00:25:21;;;;;;;126.43;114.63;;;6.80;99.10;;;;;;5032575;28;20069;-77
2021/12/28 00:27:49;;;;;;;125.32;113.63;;;6.80;99.10;;;;;;5032586;28;20060;-76
2021/12/28 00:30:17;;;;;;;128.18;116.20;;;6.80;99.20;;;;;;5032703;28;20057;-76
2021/12/28 00:32:46;;;;;;;126.30;114.30;;;6.80;99.20;;;;;;5032827;28;20084;-77
2021/12/28 00:35:13;;;;;;;128.32;116.22;;;6.80;99.30;;;;;;5032837;28;20104;-76
2021/12/28 00:37:40;;;;;;;128.75;116.75;;;6.80;99.20;;;;;;5032369;28;20058;-77
2021/12/28 00:40:08;;;;;;;126.90;114.82;;;6.80;99.30;;;;;;5032885;28;20081;-77
2021/12/28 00:42:35;;;;;;;129.85;117.55;;;6.80;99.30;;;;;;5033864;28;20049;-77
2021/12/28 00:45:05;;;;;;;130.95;118.53;;;6.80;99.40;;;;;;5032492;28;20054;-76
2021/12/28 00:47:32;;;;;;;130.93;118.45;;;6.90;99.40;;;;;;5032471;28;20052;-77
2021/12/28 00:49:58;;;;;;;;;;;6.90;99.50;;;;;;5033416;28;20517;-76
2021/12/28 00:52:25;;;;;;;;;;;6.90;99.60;;;;;;5034458;28;19957;-77
2021/12/28 00:54:52;;;;;;;129.50;116.90;;;6.90;99.60;;;;;;5032737;28;19921;-77
2021/12/28 00:57:19;;;;;;;;;;;6.90;99.50;;;;;;5032886;28;20606;-77
2021/12/28 00:59:46;;;;;;;131.02;118.18;;;6.90;99.60;;;;;;5032610;28;20012;-77
2021/12/28 01:02:14;;;;;;;;;;;7.00;99.50;;;;;;5033903;28;20050;-77
2021/12/28 01:04:41;;;;;;;132.00;119.18;;;7.00;99.60;;;;;;5033534;28;19926;-77
2021/12/28 01:07:08;;;;;;;132.25;119.45;;;7.00;99.50;;;;;;5032233;28;20140;-76
2021/12/28 01:09:35;;;;;;;;;;;7.00;99.60;;;;;;5032971;28;20053;-77
2021/12/28 01:12:05;;;;;;;132.02;119.20;;;7.00;99.70;;;;;;5032428;28;19937;-76
2021/12/28 01:14:32;;;;;;;132.25;119.45;;;7.00;99.70;;;;;;5032168;28;20050;-77
2021/12/28 01:17:00;;;;;;;134.80;121.75;;;7.10;99.70;;;;;;5032851;28;20438;-76
2021/12/28 01:19:29;;;;;;;134.75;121.55;;;7.10;99.70;;;;;;5037238;28;20053;-76
2021/12/28 01:21:56;;;;;;;134.10;121.10;;;7.10;99.70;;;;;;5035307;28;20157;-77
2021/12/28 01:24:24;;;;;;;;;;;7.10;99.70;;;;;;5036139;28;20496;-77
2021/12/28 01:26:51;;;;;;;136.60;123.13;;;7.10;99.80;;;;;;5035956;28;20028;-77
2021/12/28 01:29:18;;;;;;;135.90;122.60;;;7.10;99.80;;;;;;5019004;28;20129;-77
2021/12/28 01:31:45;;;;;;;;;;;7.10;99.80;;;;;;5019355;28;20053;-77
2021/12/28 01:34:12;;;;;;;136.25;122.97;;;7.20;99.90;;;;;;5035788;28;19925;-77
2021/12/28 01:36:40;;;;;;;138.18;124.53;;;7.20;99.80;;;;;;5035024;28;20060;-77
2021/12/28 01:39:10;;;;;;;138.40;124.82;;;7.20;99.80;;;;;;5034851;28;20046;-77
2021/12/28 01:41:37;;;;;;;139.65;126.05;;;7.20;99.80;;;;;;5035105;28;20056;-77
2021/12/28 01:44:07;;;;;;;138.43;124.80;;;7.20;99.90;;;;;;5035208;28;20136;-76
2021/12/28 01:46:35;;;;;;;139.13;125.35;;;7.20;99.90;;;;;;5036624;28;20074;-77
2021/12/28 01:49:04;;;;;;;139.82;125.95;;;7.20;99.90;;;;;;5034885;28;20049;-77
2021/12/28 01:51:32;;;;;;;141.15;127.53;;;7.30;99.90;;;;;;5036417;28;20105;-77
2021/12/28 01:54:02;;;;;;;140.85;126.70;;;7.30;99.90;;;;;;5035236;28;20077;-77
2021/12/28 01:56:31;;;;;;;139.05;125.80;;;7.30;99.90;;;;;;5034927;28;20054;-77
2021/12/28 01:58:58;;;;;;;139.43;125.38;;;7.30;99.90;;;;;;5051591;28;20515;-77
2021/12/28 02:01:26;;;;;;;137.23;124.10;;;7.30;99.90;;;;;;5034519;28;20060;-76
2021/12/28 02:03:53;;;;;;;138.75;124.93;;;7.30;99.90;;;;;;5034862;28;20065;-77
2021/12/28 02:06:22;;;;;;;137.23;124.18;;;7.30;99.90;;;;;;5034914;28;20420;-77
2021/12/28 02:08:49;;;;;;;139.05;125.57;;;7.30;99.90;;;;;;5051128;28;20049;-77
2021/12/28 02:11:17;;;;;;;;;;;7.30;99.90;;;;;;5035297;28;20046;-77
2021/12/28 02:13:44;;;;;;;139.85;125.55;;;7.30;99.90;;;;;;5035068;28;19925;-77
2021/12/28 02:16:11;;;;;;;139.05;124.63;;;7.30;99.90;;;;;;5018062;28;20170;-76
2021/12/28 02:18:38;;;;;;;136.73;122.75;;;7.30;99.90;;;;;;5034467;28;20053;-77
2021/12/28 02:21:08;;;;;;;141.02;127.00;;;7.40;99.90;;;;;;5036889;28;20022;-77
2021/12/28 02:23:36;;;;;;;141.50;127.05;;;7.40;99.90;;;;;;5017883;28;20104;-77
2021/12/28 02:26:04;;;;;;;139.55;125.53;;;7.40;99.90;;;;;;5035670;28;20065;-77
2021/12/28 02:28:31;;;;;;;138.85;124.97;;;7.40;99.90;;;;;;5034522;28;20054;-76
2021/12/28 02:30:59;;;;;;;137.90;124.30;;;7.40;99.90;;;;;;5033781;28;20468;-77
2021/12/28 02:33:28;;;;;;;140.32;126.38;;;7.40;99.90;;;;;;5033770;28;20104;-77
2021/12/28 02:35:57;;;;;;;139.25;125.28;;;7.40;99.90;;;;;;5034437;28;20054;-77
2021/12/28 02:38:26;;;;;;;140.75;126.50;;;7.50;99.90;;;;;;5033057;28;20054;-77
2021/12/28 02:40:53;;;;;;;140.40;126.20;;;7.50;99.90;;;;;;5034299;28;20054;-77
2021/12/28 02:43:21;;;;;;;141.30;127.13;;;7.50;99.90;;;;;;5035898;28;20133;-77
2021/12/28 02:45:51;;;;;;;142.13;127.63;;;7.50;99.90;;;;;;5017752;28;20046;-77
2021/12/28 02:48:18;;;;;;;142.93;128.18;;;7.50;99.90;;;;;;5033856;28;20054;-77
2021/12/28 02:50:48;;;;;;;140.40;126.20;;;7.50;99.90;;;;;;5017302;28;20121;-77
2021/12/28 02:53:17;;;;;;;139.05;124.80;;;7.50;99.90;;;;;;5035233;28;20141;-77
2021/12/28 02:55:47;;;;;;;142.68;128.18;;;7.60;99.90;;;;;;5033966;28;20056;-77
2021/12/28 02:58:25;;;;;;;138.85;124.18;;;7.60;99.90;;;;;;5035188;28;20056;-76
2021/12/28 03:00:55;;;;;;;137.10;123.05;;;7.60;99.90;;;;;;5035452;28;20081;-77
2021/12/28 03:03:25;;;;;;;140.45;125.80;;;7.60;99.90;;;;;;5033848;28;20120;-77
2021/12/28 03:05:54;;;;;;;141.45;126.68;;;7.60;99.90;;;;;;5033728;28;20060;-76
2021/12/28 03:08:24;;;;;;;141.45;126.57;;;7.60;99.90;;;;;;5034547;28;20447;-77
2021/12/28 03:10:54;;;;;;;143.00;127.50;;;7.60;99.90;;;;;;5035428;28;20128;-77
2021/12/28 03:13:23;;;;;;;143.23;128.13;;;7.60;99.90;;;;;;5033805;28;20512;-77
2021/12/28 03:15:50;;;;;;;139.43;124.85;;;7.70;99.90;;;;;;5033908;28;20060;-77
2021/12/28 03:18:18;;;;;;;141.13;125.60;;;7.70;99.90;;;;;;5017319;28;20060;-77
2021/12/28 03:20:46;;;;;;;139.63;124.93;;;7.70;99.90;;;;;;5033655;28;20065;-77
2021/12/28 03:23:14;;;;;;;136.68;121.68;;;7.70;99.90;;;;;;5017148;28;20148;-77
2021/12/28 03:25:42;;;;;;;138.00;123.70;;;7.70;99.90;;;;;;5033379;28;20065;-77
2021/12/28 03:28:17;;;;;;;139.60;124.88;;;7.70;99.90;;;;;;5033351;28;20050;-77
2021/12/28 03:30:44;;;;;;;138.50;123.57;;;7.80;99.90;;;;;;5033425;28;20046;-77
2021/12/28 03:33:11;;;;;;;138.27;124.35;;;7.80;99.90;;;;;;5033221;28;20052;-77
2021/12/28 03:35:38;;;;;;;138.82;124.05;;;7.80;99.90;;;;;;5033379;28;20057;-76
2021/12/28 03:38:06;;;;;;;138.98;125.22;;;7.80;99.90;;;;;;5033539;28;20494;-77
2021/12/28 03:40:34;;;;;;;139.07;124.35;;;7.80;99.90;;;;;;5032813;28;20069;-77
2021/12/28 03:43:01;;;;;;;137.43;123.22;;;7.80;99.90;;;;;;5033287;28;20054;-77
2021/12/28 03:45:30;;;;;;;137.82;124.03;;;7.90;99.90;;;;;;5016290;28;20041;-77
2021/12/28 03:47:57;;;;;;;138.65;124.88;;;7.80;99.90;;;;;;5034325;28;20080;-77
2021/12/28 03:50:25;;;;;;;138.45;124.43;;;7.90;99.90;;;;;;5015388;28;20125;-77
2021/12/28 03:52:54;;;;;;;139.27;125.47;;;7.90;99.90;;;;;;5033185;28;20500;-77
2021/12/28 03:55:22;;;;;;;140.30;125.70;;;7.90;99.90;;;;;;5034143;28;20050;-77
2021/12/28 03:57:49;;;;;;;137.43;123.40;;;7.90;99.90;;;;;;5034154;28;20053;-77
2021/12/28 04:00:19;;;;;;;139.02;124.63;;;7.90;99.90;;;;;;5032619;28;20125;-77
2021/12/28 04:02:48;;;;;;;135.88;121.60;;;7.90;99.90;;;;;;5032737;28;20077;-77
2021/12/28 04:05:17;;;;;;;136.75;122.65;;;7.90;99.90;;;;;;5065614;22;20058;-76
2021/12/28 04:07:45;;;;;;;137.63;123.72;;;7.90;99.90;;;;;;5016045;28;20053;-77
2021/12/28 04:10:15;;;;;;;138.95;124.85;;;7.90;99.90;;;;;;5016393;28;20082;-77
2021/12/28 04:12:42;;;;;;;136.80;122.95;;;7.90;99.90;;;;;;5032698;28;20058;-77
2021/12/28 04:15:12;;;;;;;137.57;123.68;;;7.90;99.90;;;;;;5033921;28;20082;-77
2021/12/28 04:17:39;;;;;;;136.60;122.68;;;7.90;99.90;;;;;;5032659;28;20058;-77
2021/12/28 04:20:11;;;;;;;133.05;119.88;;;7.90;99.90;;;;;;5032513;28;20053;-77
2021/12/28 04:22:38;;;;;;;137.15;123.20;;;8.00;99.90;;;;;;5015889;28;20048;-77
2021/12/28 04:25:07;;;;;;;134.85;121.43;;;8.00;99.90;;;;;;5032662;28;20484;-77
2021/12/28 04:27:34;;;;;;;133.02;119.60;;;7.90;99.90;;;;;;5015720;28;20090;-77
2021/12/28 04:30:01;;;;;;;132.32;119.22;;;7.90;99.90;;;;;;5032228;28;20136;-77
2021/12/28 04:32:28;;;;;;;133.15;120.22;;;7.90;99.90;;;;;;5032490;28;20129;-77
2021/12/28 04:34:55;;;;;;;131.88;119.00;;;7.90;99.90;;;;;;5016046;28;20054;-77
2021/12/28 04:37:23;;;;;;;;;;;7.90;99.90;;;;;;5033263;28;20052;-77
2021/12/28 04:39:50;;;;;;;132.20;119.20;;;7.90;99.90;;;;;;5032982;28;20429;-77
2021/12/28 04:42:18;;;;;;;131.68;118.47;;;7.90;99.90;;;;;;5032681;28;20064;-77
2021/12/28 04:44:47;;;;;;;134.30;120.93;;;7.90;99.90;;;;;;5032129;28;20133;-77
2021/12/28 04:47:16;;;;;;;133.65;120.55;;;7.90;99.90;;;;;;5032553;28;20112;-77
2021/12/28 04:49:43;;;;;;;132.90;119.57;;;7.90;99.90;;;;;;5032239;28;20618;-77
2021/12/28 04:52:10;;;;;;;132.52;119.38;;;7.90;99.90;;;;;;5033684;28;20141;-77
2021/12/28 04:54:38;;;;;;;132.93;120.05;;;8.00;99.90;;;;;;5019384;28;20062;-77
2021/12/28 04:57:07;;;;;;;132.05;119.05;;;8.00;99.90;;;;;;5019042;28;20045;-77
2021/12/28 04:59:35;;;;;;;130.43;117.70;;;8.00;99.90;;;;;;5018976;28;20502;-77
2021/12/28 05:02:02;;;;;;;132.77;119.70;;;7.90;99.90;;;;;;5036974;28;20057;-77
2021/12/28 05:04:29;;;;;;;130.45;117.60;;;7.90;99.90;;;;;;5035753;28;20555;-77
2021/12/28 05:06:56;;;;;;;130.00;117.05;;;8.00;99.90;;;;;;5035362;28;20061;-77
2021/12/28 05:09:24;;;;;;;132.30;119.40;;;7.90;99.90;;;;;;5036862;28;20130;-77
2021/12/28 05:11:52;;;;;;;131.57;118.57;;;7.90;99.90;;;;;;5035628;28;20177;-77
2021/12/28 05:14:20;;;;;;;128.57;116.18;;;7.90;99.90;;;;;;5035929;28;20061;-77
2021/12/28 05:16:48;;;;;;;132.85;119.47;;;7.90;99.90;;;;;;5035385;28;20073;-77
2021/12/28 05:19:16;;;;;;;129.30;116.72;;;7.90;99.90;;;;;;5036454;28;20504;-77
2021/12/28 05:21:43;;;;;;;130.43;117.43;;;7.90;99.90;;;;;;5034881;28;20070;-77
2021/12/28 05:24:10;;;;;;;131.38;118.68;;;7.90;99.90;;;;;;5028382;28;20137;-77
2021/12/28 05:26:37;;;;;;;131.45;118.75;;;7.90;99.90;;;;;;5015899;28;20086;-77
2021/12/28 05:29:06;;;;;;;132.45;119.68;;;7.90;99.90;;;;;;5033719;28;20112;-77
2021/12/28 05:31:33;;;;;;;131.80;118.82;;;7.90;99.90;;;;;;5034896;28;20138;-77
2021/12/28 05:34:00;;;;;;;126.50;114.10;;;7.90;99.90;;;;;;5035129;28;20133;-77
2021/12/28 05:36:27;;;;;;;129.20;116.03;;;7.90;99.80;;;;;;5018488;28;20053;-77
2021/12/28 05:38:54;;;;;;;130.15;117.28;;;7.90;99.80;;;;;;5017969;28;20104;-76
2021/12/28 05:41:22;;;;;;;129.82;116.90;;;7.90;99.70;;;;;;5036223;28;20057;-77
2021/12/28 05:43:49;;;;;;;127.05;114.28;;;7.90;99.90;;;;;;5036134;28;20064;-77
2021/12/28 05:46:19;;;;;;;127.00;114.57;;;7.90;99.90;;;;;;5034957;28;20046;-77
2021/12/28 05:48:47;;;;;;;127.68;114.90;;;7.90;99.70;;;;;;5035012;28;20101;-77
2021/12/28 05:51:15;;;;;;;127.20;114.47;;;7.90;99.70;;;;;;5034852;28;20056;-76
2021/12/28 05:53:42;;;;;;;128.32;115.82;;;7.90;99.70;;;;;;5036133;28;20054;-77
2021/12/28 05:56:09;;;;;;;127.80;115.20;;;7.90;99.70;;;;;;5018566;28;20046;-77
2021/12/28 05:58:36;;;;;;;125.68;113.20;;;7.90;99.70;;;;;;5034358;28;20482;-77
2021/12/28 06:01:03;;;;;;;127.07;114.53;;;7.90;99.60;;;;;;5018095;28;20042;-77
2021/12/28 06:03:33;;;;;;;126.55;114.05;;;7.90;99.60;;;;;;5034110;28;20797;-77
2021/12/28 06:06:00;;;;;;;125.88;113.38;;;7.90;99.60;;;;;;5034466;28;20084;-76
2021/12/28 06:08:27;;;;;;;127.30;114.78;;;7.90;99.50;;;;;;5034238;28;20056;-77
2021/12/28 06:10:54;;;;;;;125.63;113.25;;;7.90;99.40;;;;;;5034415;28;20057;-77
2021/12/28 06:13:21;;;;;;;126.18;113.90;;;7.90;99.40;;;;;;5034451;28;20080;-77
2021/12/28 06:15:48;;;;;;;126.60;114.03;;;7.90;99.30;;;;;;5034803;28;20112;-77
2021/12/28 06:18:15;;;;;;;124.28;111.88;;;7.90;99.30;;;;;;5034188;28;20519;-77
2021/12/28 06:20:44;;;;;;;124.30;112.07;;;7.90;99.30;;;;;;5034734;28;20053;-77
2021/12/28 06:23:11;;;;;;;126.32;114.00;;;7.90;99.30;;;;;;5034556;28;20882;-77
2021/12/28 06:25:39;;;;;;;126.82;114.25;;;7.90;99.20;;;;;;5017817;28;20517;-76
2021/12/28 06:28:06;;;;;;;123.53;111.32;;;7.90;99.20;;;;;;5034468;28;20061;-77
2021/12/28 06:30:34;;;;;;;124.03;111.82;;;7.90;99.20;;;;;;5034667;28;20069;-77
2021/12/28 06:33:01;;;;;;;127.05;114.35;;;7.90;99.20;;;;;;5034482;28;20132;-77
2021/12/28 06:35:29;;;;;;;123.78;111.65;;;7.90;99.20;;;;;;5034174;28;20140;-77
2021/12/28 06:37:57;;;;;;;122.43;110.40;;;7.90;99.10;;;;;;5034107;28;20065;-77
2021/12/28 06:40:24;;;;;;;123.30;111.18;;;7.90;99.10;;;;;;5017750;28;20056;-77
2021/12/28 06:42:52;;;;;;;123.30;111.25;;;7.90;99.10;;;;;;5034216;28;20050;-76
2021/12/28 06:45:19;;;;;;;123.22;111.20;;;7.90;99.10;;;;;;5033956;28;20053;-77
2021/12/28 06:47:46;;;;;;;125.57;113.35;;;7.90;99.10;;;;;;5034366;28;20057;-77
2021/12/28 06:50:13;;;;;;;122.32;110.05;;;7.90;99.10;;;;;;5034388;28;20065;-76
2021/12/28 06:52:40;;;;;;;121.85;109.88;;;7.90;99.10;;;;;;5034004;28;20070;-76
2021/12/28 06:55:10;;;;;;;121.75;109.97;;;7.90;99.00;;;;;;5033971;28;20042;-76
2021/12/28 06:57:38;;;;;;;120.72;108.93;;;7.80;99.00;;;;;;5033463;28;20046;-76
2021/12/28 07:00:07;;;;;;;119.85;108.22;;;7.90;99.10;;;;;;5034203;28;20411;-77
2021/12/28 07:02:35;;;;;;;119.90;108.20;;;7.80;99.10;;;;;;5035243;28;20064;-76
2021/12/28 07:05:02;;;;;;;122.28;110.30;;;7.80;99.10;;;;;;5033505;28;20054;-76
2021/12/28 07:07:29;;;;;;;123.28;111.13;;;7.80;99.10;;;;;;5035014;28;20054;-76
2021/12/28 07:09:56;;;;;;;124.88;112.55;;;7.80;99.10;;;;;;5033448;28;20412;-76
2021/12/28 07:12:25;;;;;;;121.35;109.65;;;7.80;99.10;;;;;;5033470;28;20601;-76
2021/12/28 07:14:53;;;;;;;120.15;108.55;;;7.70;99.10;;;;;;5032531;28;20046;-76
2021/12/28 07:17:20;;;;;;;121.47;109.40;;;7.70;99.20;;;;;;5034489;28;20583;-77
2021/12/28 07:19:47;;;;;;;118.90;107.13;;;7.70;99.20;;;;;;5033618;28;20053;-76
2021/12/28 07:22:14;;;;;;;124.85;112.95;;;7.70;99.20;;;;;;5033951;28;20132;-76
2021/12/28 07:24:41;;;;;;;119.25;107.43;;;7.70;99.20;;;;;;5039668;28;20061;-76
2021/12/28 07:27:09;;;;;;;121.35;109.40;;;7.70;99.30;;;;;;5032830;28;20526;-76
2021/12/28 07:29:37;;;;;;;120.68;109.00;;;7.70;99.30;;;;;;5033330;28;20058;-76
2021/12/28 07:32:08;;;;;;;120.18;108.25;;;7.60;99.30;;;;;;5047005;28;20511;-76
2021/12/28 07:34:36;;;;;;;120.05;108.18;;;7.60;99.30;;;;;;5052575;28;20577;-76
2021/12/28 07:37:03;;;;;;;118.72;106.95;;;7.60;99.30;;;;;;5048308;28;20108;-77
2021/12/28 07:39:31;;;;;;;122.75;110.60;;;7.50;99.30;;;;;;5042210;28;20080;-76
2021/12/28 07:41:58;;;;;;;122.03;110.10;;;7.50;99.30;;;;;;5039583;28;20050;-76
2021/12/28 07:44:25;;;;;;;123.82;111.88;;;7.50;99.40;;;;;;5042939;28;20053;-76
2021/12/28 07:46:54;;;;;;;122.68;110.88;;;7.50;99.40;;;;;;5033513;28;20480;-77
2021/12/28 07:49:21;;;;;;;124.65;112.93;;;7.50;99.40;;;;;;5013565;28;20050;-77
2021/12/28 07:51:48;;;;;;;119.90;108.22;;;7.50;99.40;;;;;;5027109;28;20058;-77
2021/12/28 07:54:15;;;;;;;119.28;107.55;;;7.50;99.40;;;;;;5032777;28;20501;-77
2021/12/28 07:56:43;;;;;;;118.32;106.63;;;7.50;99.50;;;;;;5032513;28;20109;-77
2021/12/28 07:59:10;;;;;;;119.13;107.30;;;7.50;99.50;;;;;;5033637;28;20678;-77
2021/12/28 08:01:37;;;;;;;117.50;106.05;;;7.50;99.50;;;;;;5032106;28;20065;-77
2021/12/28 08:04:06;;;;;;;118.70;106.88;;;7.50;99.50;;;;;;5031908;28;20084;-78
2021/12/28 08:06:33;;;;;;;117.60;105.97;;;7.50;99.60;;;;;;5032565;28;20072;-77
2021/12/28 08:09:01;;;;;;;119.63;107.90;;;7.50;99.60;;;;;;5030583;28;20046;-77
2021/12/28 08:11:28;;;;;;;118.60;106.75;;;7.50;99.60;;;;;;5044828;28;20152;-77
2021/12/28 08:13:56;;;;;;;122.88;110.88;;;7.50;99.60;;;;;;5032170;28;20484;-78
2021/12/28 08:16:24;;;;;;;120.63;109.05;;;7.50;99.60;;;;;;5015718;28;20042;-77
2021/12/28 08:18:51;;;;;;;120.78;109.28;;;7.40;99.60;;;;;;5032335;28;20057;-77
2021/12/28 08:21:20;;;;;;;120.53;109.03;;;7.40;99.60;;;;;;5032233;28;20440;-77
2021/12/28 08:23:47;;;;;;;118.28;106.88;;;7.40;99.60;;;;;;5033544;28;20136;-76
2021/12/28 08:26:16;;;;;;;118.45;106.82;;;7.40;99.60;;;;;;5031841;28;20135;-77
2021/12/28 08:28:43;;;;;;;118.45;106.75;;;7.40;99.60;;;;;;5032248;28;20065;-78
2021/12/28 08:31:11;;;;;;;120.28;108.38;;;7.40;99.70;;;;;;5015155;28;20060;-78
2021/12/28 08:33:38;;;;;;;120.60;108.70;;;7.40;99.70;;;;;;5014351;28;20073;-78
2021/12/28 08:36:05;;;;;;;;;;;7.40;99.70;;;;;;5032945;28;20046;-78
2021/12/28 08:38:34;;;;;;;122.50;110.15;;;7.40;99.80;;;;;;5031937;28;20444;-78
2021/12/28 08:41:01;;;;;;;117.97;106.10;;;7.40;99.80;;;;;;5029081;28;20060;-78
2021/12/28 08:43:28;;;;;;;;;;;7.40;99.80;;;;;;5017567;28;20046;-78
2021/12/28 08:45:55;;;;;;;121.18;109.20;;;7.40;99.80;;;;;;5024029;28;19973;-78
2021/12/28 08:48:23;;;;;;;119.07;107.25;;;7.40;99.80;;;;;;5032661;28;20136;-78
2021/12/28 08:50:51;;;;;;;118.13;106.35;;;7.40;99.70;;;;;;5031924;28;20554;-78
2021/12/28 08:53:18;;;;;;;116.60;105.07;;;7.40;99.70;;;;;;5033406;28;20046;-78
2021/12/28 08:55:47;;;;;;;118.57;107.03;;;7.40;99.80;;;;;;5033865;28;20046;-78
2021/12/28 08:58:15;;;;;;;118.18;106.32;;;7.50;99.80;;;;;;5032720;28;20080;-78
2021/12/28 09:00:42;;;;;;;115.13;103.82;;;7.40;99.80;;;;;;5031166;28;20135;-78
2021/12/28 09:03:09;;;;;;;121.35;109.47;;;7.50;99.80;;;;;;5014933;28;20144;-78
2021/12/28 09:05:38;;;;;;;116.53;104.95;;;7.50;99.80;;;;;;5028459;28;20143;-78
2021/12/28 09:08:09;;;;;;;113.70;102.28;;;7.50;99.80;;;;;;5032110;28;20042;-78
2021/12/28 09:10:36;;;;;;;115.30;103.75;;;7.50;99.80;;;;;;5030461;28;20050;-78
2021/12/28 09:13:07;;;;;;;117.57;106.05;;;7.50;99.80;;;;;;5031971;28;20085;-78
2021/12/28 09:15:36;;;;;;;119.25;107.32;;;7.50;99.80;;;;;;5028932;28;20046;-77
2021/12/28 09:18:04;;;;;;;117.53;105.93;;;7.50;99.80;;;;;;5039319;28;20049;-78
2021/12/28 09:20:31;;;;;;;117.57;106.10;;;7.50;99.90;;;;;;5040138;28;20112;-78
2021/12/28 09:22:58;;;;;;;116.10;105.00;;;7.50;99.90;;;;;;5035095;28;20045;-78
2021/12/28 09:25:26;;;;;;;114.03;102.45;;;7.50;99.90;;;;;;5051935;28;20076;-78
2021/12/28 09:27:54;;;;;;;114.45;103.03;;;7.50;99.90;;;;;;5051342;28;20054;-78
2021/12/28 09:30:23;;;;;;;119.13;107.15;;;7.50;99.90;;;;;;5052113;28;20053;-78
2021/12/28 09:32:51;;;;;;;119.53;107.82;;;7.50;99.90;;;;;;5053311;28;20791;-78
2021/12/28 09:35:19;;;;;;;118.68;106.80;;;7.60;99.90;;;;;;5047541;28;20132;-79
2021/12/28 09:37:46;;;;;;;117.97;106.22;;;7.60;99.90;;;;;;5033934;28;20528;-78
2021/12/28 09:40:14;;;;;;;118.63;106.50;;;7.60;99.90;;;;;;4998980;28;20047;-78
2021/12/28 09:42:42;;;;;;;119.60;107.60;;;7.70;99.90;;;;;;5015249;28;20054;-78
2021/12/28 09:45:12;;;;;;;118.72;107.07;;;7.70;99.90;;;;;;5015047;28;20056;-77
2021/12/28 09:47:42;;;;;;;117.05;105.22;;;7.70;99.90;;;;;;5016584;28;20054;-78
2021/12/28 09:50:12;;;;;;;118.13;106.25;;;7.80;99.90;;;;;;5031629;28;20077;-77
2021/12/28 09:52:40;;;;;;;115.57;103.82;;;7.80;99.90;;;;;;5016350;28;20062;-78
2021/12/28 09:55:07;;;;;;;116.93;105.20;;;7.80;99.90;;;;;;5016488;28;20077;-77
2021/12/28 09:57:35;;;;;;;116.93;104.40;;;7.90;99.90;;;;;;5014887;28;20064;-77
2021/12/28 10:00:02;;;;;;;116.88;104.78;;;7.90;99.90;;;;;;5015159;28;20089;-77
2021/12/28 10:02:31;;;;;;;119.05;106.88;;;7.90;99.90;;;;;;5030801;28;20053;-77
2021/12/28 10:05:04;;;;;;;;;;;7.90;99.90;;;;;;5034754;28;20133;-78
2021/12/28 10:07:33;;;;;;;118.90;106.80;;;7.90;99.90;;;;;;5026543;28;19925;-77
2021/12/28 10:10:00;;;;;;;118.22;106.28;;;8.00;99.90;;;;;;5054233;28;20128;-77
2021/12/28 10:12:32;;;;;;;117.88;106.07;;;8.00;99.90;;;;;;5044274;28;20045;-77
2021/12/28 10:15:01;;;;;;;115.07;103.30;;;8.00;99.90;;;;;;5036050;28;20133;-77
2021/12/28 10:17:31;;;;;;;114.38;102.80;;;8.00;99.90;;;;;;5034232;28;20049;-77
2021/12/28 10:20:02;;;;;;;115.13;103.88;;;8.00;99.90;;;;;;5034404;28;20132;-77
2021/12/28 10:22:32;;;;;;;114.90;103.40;;;8.10;99.90;;;;;;5034704;28;20136;-78
2021/12/28 10:25:02;;;;;;;113.07;101.43;;;8.10;99.90;;;;;;5034257;28;20613;-78
2021/12/28 10:27:32;;;;;;;112.20;100.90;;;8.10;99.90;;;;;;5034232;28;20967;-77
2021/12/28 10:33:30;;;;;;;115.53;103.88;;;8.10;99.90;;;;;;5034072;28;20050;-78
2021/12/28 10:36:01;;;;;;;113.90;102.20;;;8.20;99.90;;;;;;5033704;28;20407;-78
2021/12/28 10:38:31;;;;;;;115.75;104.38;;;8.20;99.90;;;;;;5033138;28;20511;-78
2021/12/28 10:41:00;;;;;;;113.03;101.88;;;8.20;99.90;;;;;;5033555;28;20072;-77
2021/12/28 10:43:29;;;;;;;113.45;102.07;;;8.20;99.90;;;;;;5033893;28;20050;-77
2021/12/28 10:46:01;;;;;;;113.55;102.57;;;8.20;99.90;;;;;;5035530;28;20140;-77
2021/12/28 10:48:31;;;;;;;113.35;102.07;;;8.30;99.90;;;;;;5044554;28;20057;-77
2021/12/28 10:51:02;;;;;;;115.80;104.47;;;8.30;99.90;;;;;;5048040;28;20064;-78
2021/12/28 10:53:36;;;;;;;113.40;102.20;;;8.30;99.90;;;;;;5034670;28;20087;-78
2021/12/28 10:56:06;;;;;;;114.10;103.05;;;8.30;99.90;;;;;;5036904;28;20084;-78
2021/12/28 10:58:39;;;;;;;111.95;100.70;;;8.30;99.90;;;;;;5037265;28;20140;-78
2021/12/28 11:01:10;;;;;;;112.75;101.80;;;8.30;99.90;;;;;;5037249;28;20991;-78
2021/12/28 11:03:40;;;;;;;116.35;104.75;;;8.40;99.90;;;;;;5049022;28;20081;-78
2021/12/28 11:06:15;;;;;;;113.80;102.80;;;8.40;99.90;;;;;;5034847;28;20056;-78
2021/12/28 11:08:45;;;;;;;112.97;101.82;;;8.40;99.90;;;;;;5035126;28;20492;-77
2021/12/28 11:11:15;;;;;;;115.40;103.80;;;8.40;99.90;;;;;;5033713;28;20124;-78
2021/12/28 11:13:42;;;;;;;115.90;104.05;;;8.40;99.90;;;;;;5033476;28;20164;-77
2021/12/28 11:16:11;;;;;;;115.30;104.18;;;8.40;99.90;;;;;;5013884;28;20046;-77
2021/12/28 11:18:41;;;;;;;114.45;103.38;;;8.50;99.90;;;;;;5013739;28;20054;-78
2021/12/28 11:21:17;;;;;;;115.50;104.40;;;8.40;99.90;;;;;;4997370;28;20141;-78
2021/12/28 11:23:46;;;;;;;114.45;103.30;;;8.50;99.90;;;;;;4997304;28;21158;-78
2021/12/28 11:26:17;;;;;;;115.50;104.13;;;8.50;99.90;;;;;;5013646;28;20050;-77
2021/12/28 11:28:59;;;;;;;113.85;102.85;;;8.50;99.90;;;;;;5019034;28;20115;-78
2021/12/28 11:31:29;;;;;;;114.60;103.55;;;8.50;99.90;;;;;;5053456;28;20045;-78
2021/12/28 11:33:59;;;;;;;114.72;103.82;;;8.50;99.90;;;;;;5042569;28;20513;-78
2021/12/28 11:36:30;;;;;;;113.18;102.57;;;8.60;99.90;;;;;;5015278;28;20540;-77
2021/12/28 11:38:59;;;;;;;116.72;105.68;;;8.60;99.90;;;;;;5014594;28;20129;-78
2021/12/28 11:41:28;;;;;;;117.40;106.35;;;8.60;99.90;;;;;;5013370;28;20061;-78
2021/12/28 11:43:56;;;;;;;116.05;105.10;;;8.60;99.90;;;;;;5002006;28;20144;-78
2021/12/28 11:46:24;;;;;;;116.43;105.50;;;8.60;99.90;;;;;;5032950;28;20157;-78
2021/12/28 11:48:52;;;;;;;115.65;104.88;;;8.60;99.90;;;;;;5031684;28;20052;-79
2021/12/28 11:51:20;;;;;;;113.78;103.22;;;8.60;99.90;;;;;;5031918;28;20058;-78
2021/12/28 11:53:49;;;;;;;116.15;105.38;;;8.60;99.90;;;;;;5033866;28;20081;-78
2021/12/28 11:56:20;;;;;;;116.40;105.55;;;8.60;99.90;;;;;;5030400;28;20057;-78
2021/12/28 11:58:54;;;;;;;114.72;103.75;;;8.60;99.90;;;;;;5015817;28;20491;-78
2021/12/28 12:01:47;;;;;;;114.13;103.53;;;8.60;99.90;;;;;;5032129;28;20128;-78
2021/12/28 12:04:45;;;;;;;112.68;102.07;;;8.60;99.90;;;;;;5046881;28;20141;-78
2021/12/28 12:07:23;;;;;;;116.18;105.38;;;8.60;99.90;;;;;;5050899;28;20586;-77
2021/12/28 12:10:13;;;;;;;116.07;105.43;;;8.60;99.90;;;;;;5051677;28;20052;-78
2021/12/28 12:12:58;;;;;;;117.53;106.72;;;8.60;99.90;;;;;;5045104;28;20056;-77
2021/12/28 12:15:27;;;;;;;116.00;105.18;;;8.60;99.90;;;;;;5012201;28;20104;-77
2021/12/28 12:18:00;;;;;;;117.90;106.95;;;8.70;99.90;;;;;;5034369;28;20050;-77
2021/12/28 12:20:33;;;;;;;115.93;105.13;;;8.70;99.90;;;;;;5012462;28;20061;-78
2021/12/28 12:23:21;;;;;;;119.55;108.53;;;8.70;99.90;;;;;;5014670;28;20088;-79
2021/12/28 12:26:02;;;;;;;117.25;106.20;;;8.70;99.90;;;;;;5032997;28;20085;-79
2021/12/28 12:28:43;;;;;;;118.75;107.95;;;8.80;99.90;;;;;;5047545;28;20050;-79
2021/12/28 12:31:19;;;;;;;118.40;107.30;;;8.70;99.90;;;;;;5031149;28;20563;-80